createdAt,value
2019-04-03T00:03:49.168Z,95668.92
2019-04-03T00:07:51.049Z,95668.48
2019-04-03T00:11:53.488Z,95667.03
2019-04-03T00:15:56.357Z,95664.27
2019-04-03T00:19:58.438Z,95659.17
2019-04-03T00:24:00.356Z,95653.83
2019-04-03T00:28:02.220Z,95658.49
2019-04-03T00:32:04.687Z,95648.05
2019-04-03T00:36:06.713Z,95662.27
2019-04-03T00:40:09.418Z,95677.83
2019-04-03T00:44:11.325Z,95670.73
2019-04-03T00:48:13.206Z,95680.11
2019-04-03T00:52:15.141Z,95673.58
2019-04-03T00:56:18.020Z,95664.96
2019-04-03T01:00:19.956Z,95667.00
2019-04-03T01:04:21.876Z,95671.97
2019-04-03T01:08:23.959Z,95660.70
2019-04-03T01:12:25.850Z,95665.59
2019-04-03T01:16:27.846Z,95666.11
2019-04-03T01:20:29.758Z,95662.63
2019-04-03T01:24:31.655Z,95660.76
2019-04-03T01:28:33.539Z,95655.99
2019-04-03T01:32:36.417Z,95642.31
2019-04-03T01:36:38.329Z,95645.45
2019-04-03T01:40:40.230Z,95635.39
2019-04-03T01:44:42.121Z,95629.48
2019-04-03T01:48:44.007Z,95631.21
2019-04-03T01:52:45.924Z,95635.89
2019-04-03T01:56:48.004Z,95630.83
2019-04-03T02:00:50.132Z,95625.09
2019-04-03T02:04:52.057Z,95624.25
2019-04-03T02:08:53.957Z,95625.77
2019-04-03T02:12:56.037Z,95617.70
2019-04-03T02:16:58.025Z,95613.75
2019-04-03T02:20:59.915Z,95609.88
2019-04-03T02:25:02.281Z,95604.36
2019-04-03T02:29:06.662Z,95605.04
2019-04-03T02:33:08.449Z,95611.23
2019-04-03T02:37:10.346Z,95598.62
2019-04-03T02:41:12.421Z,95593.30
2019-04-03T02:45:15.719Z,95595.50
2019-04-03T02:49:17.600Z,95591.25
2019-04-03T02:53:20.383Z,95584.38
2019-04-03T02:57:22.349Z,95588.37
2019-04-03T03:01:24.245Z,95588.05
2019-04-03T03:05:28.102Z,95586.19
2019-04-03T03:09:31.745Z,95586.91
2019-04-03T03:13:35.247Z,95595.70
2019-04-03T03:17:39.184Z,95598.39
2019-04-03T03:21:43.890Z,95602.55
2019-04-03T03:25:46.446Z,95593.53
2019-04-03T03:29:48.978Z,95602.73
2019-04-03T03:33:51.286Z,95598.80
2019-04-03T03:37:54.147Z,95597.33
2019-04-03T03:41:58.519Z,95594.14
2019-04-03T03:46:01.504Z,95585.75
2019-04-03T03:50:04.436Z,95589.03
2019-04-03T03:54:06.827Z,95599.91
2019-04-03T03:58:12.550Z,95592.48
2019-04-03T04:02:13.832Z,95590.41
2019-04-03T04:06:15.827Z,95586.27
2019-04-03T04:10:17.716Z,95575.02
2019-04-03T04:14:22.846Z,95585.64
2019-04-03T04:18:25.832Z,95582.23
2019-04-03T04:22:28.586Z,95585.95
2019-04-03T04:26:31.795Z,95589.39
2019-04-03T04:30:34.966Z,95589.08
2019-04-03T04:34:37.175Z,95578.75
2019-04-03T04:38:39.149Z,95573.49
2019-04-03T04:42:41.056Z,95575.73
2019-04-03T04:46:44.532Z,95574.72
2019-04-03T04:50:46.642Z,95568.54
2019-04-03T04:54:48.632Z,95568.90
2019-04-03T04:58:50.527Z,95583.56
2019-04-03T05:02:52.441Z,95576.03
2019-04-03T05:06:54.345Z,95581.00
2019-04-03T05:10:56.231Z,95591.06
2019-04-03T05:14:58.150Z,95581.09
2019-04-03T05:19:09.499Z,95570.75
2019-04-03T05:23:04.092Z,95565.69
2019-04-03T05:27:08.147Z,95559.88
2019-04-03T05:31:09.848Z,95562.20
2019-04-03T05:35:14.584Z,95566.89
2019-04-03T05:39:15.463Z,95580.00
2019-04-03T05:43:17.442Z,95589.17
2019-04-03T05:47:19.440Z,95589.27
2019-04-03T05:51:21.308Z,95597.86
2019-04-03T05:55:23.384Z,95588.31
2019-04-03T05:59:25.295Z,95586.36
2019-04-03T06:03:38.822Z,95586.63
2019-04-03T06:07:30.989Z,95569.88
2019-04-03T06:11:33.177Z,95583.34
2019-04-03T06:15:35.248Z,95579.44
2019-04-03T06:19:39.739Z,95574.63
2019-04-03T06:28:14.733Z,95561.28
2019-04-03T06:32:17.053Z,95568.09
2019-04-03T06:36:19.244Z,95567.90
2019-04-03T06:40:21.133Z,95547.32
2019-04-03T06:44:23.155Z,95545.95
2019-04-03T06:48:26.081Z,95547.23
2019-04-03T06:52:27.978Z,95543.92
2019-04-03T06:56:29.910Z,95538.08
2019-04-03T07:00:31.847Z,95530.56
2019-04-03T07:04:33.751Z,95525.95
2019-04-03T07:08:38.043Z,95541.12
2019-04-03T07:12:40.276Z,95542.45
2019-04-03T07:16:42.255Z,95542.35
2019-04-03T07:20:44.162Z,95538.14
2019-04-03T07:24:47.128Z,95520.47
2019-04-03T07:28:49.115Z,95520.80
2019-04-03T07:32:51.245Z,95534.63
2019-04-03T07:36:54.164Z,95524.60
2019-04-03T07:40:56.145Z,95537.87
2019-04-03T07:44:58.072Z,95542.39
2019-04-03T07:49:00.703Z,95551.11
2019-04-03T07:53:02.788Z,95544.23
2019-04-03T07:57:04.903Z,95551.93
2019-04-03T08:01:09.860Z,95548.47
2019-04-03T08:05:10.941Z,95550.06
2019-04-03T08:09:12.866Z,95553.23
2019-04-03T08:13:15.115Z,95545.29
2019-04-03T08:17:19.038Z,95553.23
2019-04-03T08:21:21.903Z,95557.49
2019-04-03T08:25:24.001Z,95551.63
2019-04-03T08:29:25.910Z,95556.08
2019-04-03T08:33:28.246Z,95554.20
2019-04-03T08:37:32.305Z,95544.89
2019-04-03T08:41:36.924Z,95542.64
2019-04-03T08:45:39.278Z,95532.24
2019-04-03T08:49:41.600Z,95528.84
2019-04-03T08:53:43.723Z,95516.29
2019-04-03T08:57:46.836Z,95521.04
2019-04-03T09:01:48.926Z,95513.48
2019-04-03T09:05:52.010Z,95509.47
2019-04-03T09:09:54.535Z,95518.36
2019-04-03T09:13:56.462Z,95505.17
2019-04-03T09:17:59.450Z,95493.05
2019-04-03T09:22:01.342Z,95485.05
2019-04-03T09:26:04.298Z,95471.03
2019-04-03T09:30:10.662Z,95407.89
2019-04-03T09:34:12.552Z,95466.94
2019-04-03T09:38:14.478Z,95467.61
2019-04-03T09:42:16.375Z,95458.70
2019-04-03T09:46:18.285Z,95449.55
2019-04-03T09:50:22.067Z,95442.84
2019-04-03T09:54:24.079Z,95440.81
2019-04-03T09:58:26.265Z,95432.31
2019-04-03T10:02:28.189Z,95427.06
2019-04-03T10:06:31.419Z,95420.52
2019-04-03T10:10:33.662Z,95419.02
2019-04-03T10:14:37.059Z,95423.45
2019-04-03T10:18:41.162Z,95422.80
2019-04-03T10:22:42.751Z,95404.79
2019-04-03T10:26:44.843Z,95397.93
2019-04-03T10:30:46.759Z,95392.59
2019-04-03T10:34:50.035Z,95391.86
2019-04-03T10:38:52.129Z,95380.82
2019-04-03T10:42:54.245Z,95382.90
2019-04-03T10:46:56.180Z,95370.50
2019-04-03T10:50:58.104Z,95367.13
2019-04-03T10:55:00.031Z,95356.85
2019-04-03T10:59:11.062Z,95346.38
2019-04-03T11:03:05.784Z,95348.88
2019-04-03T11:07:07.907Z,95346.23
2019-04-03T11:11:09.909Z,95339.92
2019-04-03T11:15:13.932Z,95342.11
2019-04-03T11:19:15.873Z,95329.86
2019-04-03T11:23:18.095Z,95317.70
2019-04-03T11:27:25.016Z,95313.33
2019-04-03T11:31:28.250Z,95311.78
2019-04-03T11:35:28.619Z,95296.48
2019-04-03T11:39:30.538Z,95289.86
2019-04-03T11:43:32.606Z,95279.84
2019-04-03T11:47:34.734Z,95272.12
2019-04-03T11:51:37.682Z,95270.44
2019-04-03T11:55:41.331Z,95262.02
2019-04-03T11:59:43.219Z,95246.98
2019-04-03T12:03:45.266Z,95243.66
2019-04-03T12:07:47.878Z,95234.58
2019-04-03T12:11:50.190Z,95233.59
2019-04-03T12:15:53.652Z,95230.66
2019-04-03T12:19:55.859Z,95215.91
2019-04-03T12:23:58.871Z,95221.98
2019-04-03T12:28:02.046Z,95215.26
2019-04-03T12:32:04.611Z,95204.92
2019-04-03T12:36:08.792Z,95200.31
2019-04-03T12:40:11.581Z,95198.07
2019-04-03T12:44:13.548Z,95185.98
2019-04-03T12:48:17.484Z,95173.69
2019-04-03T12:52:19.239Z,95184.83
2019-04-03T12:56:23.929Z,95178.06
2019-04-03T13:00:25.898Z,95178.92
2019-04-03T13:04:30.233Z,95178.63
2019-04-03T13:08:31.661Z,95162.50
2019-04-03T13:12:33.820Z,95159.59
2019-04-03T13:16:35.741Z,95150.48
2019-04-03T13:20:38.735Z,95144.11
2019-04-03T13:24:43.382Z,95143.11
2019-04-03T13:28:45.311Z,95130.80
2019-04-03T13:32:57.646Z,95125.37
2019-04-03T13:36:51.953Z,95122.06
2019-04-03T13:40:54.313Z,95114.34
2019-04-03T13:44:58.324Z,95114.59
2019-04-03T13:49:00.383Z,95107.16
2019-04-03T13:57:26.720Z,95089.91
2019-04-03T14:01:29.007Z,95083.32
2019-04-03T14:05:32.870Z,95080.45
2019-04-03T14:09:34.981Z,95077.44
2019-04-03T14:13:37.004Z,95072.56
2019-04-03T14:17:39.199Z,95078.67
2019-04-03T14:21:41.185Z,95078.30
2019-04-03T14:25:43.163Z,95064.25
2019-04-03T14:29:45.074Z,95069.84
2019-04-03T14:33:47.306Z,95057.08
2019-04-03T14:37:49.838Z,95051.98
2019-04-03T14:41:54.326Z,95058.19
2019-04-03T14:45:55.403Z,95041.58
2019-04-03T14:49:57.302Z,95058.95
2019-04-03T14:53:59.236Z,95041.83
2019-04-03T14:58:01.933Z,95045.23
2019-04-03T15:02:04.883Z,95042.11
2019-04-03T15:06:06.941Z,95033.38
2019-04-03T15:10:09.562Z,95026.41
2019-04-03T15:14:11.704Z,95014.86
2019-04-03T15:18:14.189Z,95008.23
2019-04-03T15:22:16.465Z,94995.24
2019-04-03T15:26:21.764Z,94989.22
2019-04-03T15:30:24.885Z,94989.31
2019-04-03T15:34:27.735Z,94984.52
2019-04-03T15:38:30.075Z,94979.80
2019-04-03T15:42:32.511Z,94975.98
2019-04-03T15:46:34.489Z,94969.72
2019-04-03T15:50:38.411Z,94952.69
2019-04-03T15:54:40.175Z,94949.34
2019-04-03T15:58:42.095Z,94949.13
2019-04-03T16:02:47.145Z,94945.08
2019-04-03T16:06:49.540Z,94932.11
2019-04-03T16:10:51.666Z,94941.61
2019-04-03T16:14:54.346Z,94939.00
2019-04-03T16:18:57.306Z,94932.20
2019-04-03T16:22:59.490Z,94925.83
2019-04-03T16:27:01.670Z,94920.28
2019-04-03T16:31:03.716Z,94916.45
2019-04-03T16:35:08.262Z,94915.72
2019-04-03T16:39:10.426Z,94909.83
2019-04-03T16:43:12.691Z,94912.81
2019-04-03T16:47:15.064Z,94909.86
2019-04-03T16:51:16.973Z,94894.15
2019-04-03T16:55:19.341Z,94889.05
2019-04-03T16:59:21.250Z,94887.06
2019-04-03T17:03:23.429Z,94875.57
2019-04-03T17:07:25.370Z,94873.13
2019-04-03T17:11:27.232Z,94875.89
2019-04-03T17:15:29.135Z,94871.66
2019-04-03T17:19:31.057Z,94869.94
2019-04-03T17:23:32.973Z,94864.56
2019-04-03T17:27:34.895Z,94853.69
2019-04-03T17:31:36.792Z,94849.06
2019-04-03T17:35:38.869Z,94850.23
2019-04-03T17:39:41.884Z,94846.39
2019-04-03T17:43:43.848Z,94845.75
2019-04-03T17:47:45.788Z,94842.83
2019-04-03T17:51:47.710Z,94844.95
2019-04-03T17:55:49.683Z,94852.88
2019-04-03T17:59:51.594Z,94856.93
2019-04-03T18:03:54.485Z,94853.11
2019-04-03T18:07:58.514Z,94858.88
2019-04-03T18:12:00.101Z,94853.45
2019-04-03T18:16:01.997Z,94864.03
2019-04-03T18:20:05.457Z,94872.52
2019-04-03T18:24:07.353Z,94874.45
2019-04-03T18:28:10.336Z,94873.99
2019-04-03T18:32:13.667Z,94873.68
2019-04-03T18:36:16.889Z,94873.19
2019-04-03T18:40:18.814Z,94878.23
2019-04-03T18:44:22.355Z,94876.99
2019-04-03T18:48:24.596Z,94876.84
2019-04-03T18:52:26.526Z,94874.34
2019-04-03T18:56:31.957Z,94877.95
2019-04-03T19:00:33.193Z,94891.27
2019-04-03T19:04:37.464Z,94893.11
2019-04-03T19:08:38.710Z,94893.91
2019-04-03T19:12:43.135Z,94892.55
2019-04-03T19:16:47.854Z,94895.39
2019-04-03T19:20:47.844Z,94891.29
2019-04-03T19:24:49.768Z,94894.58
2019-04-03T19:28:51.696Z,94900.89
2019-04-03T19:32:54.647Z,94903.75
2019-04-03T19:36:56.562Z,94902.31
2019-04-03T19:40:58.465Z,94901.37
2019-04-03T19:45:00.393Z,94907.36
2019-04-03T19:49:02.322Z,94909.71
2019-04-03T19:53:07.815Z,94905.39
2019-04-03T19:57:08.789Z,94904.99
2019-04-03T20:01:10.699Z,94934.36
2019-04-03T20:05:13.032Z,94931.92
2019-04-03T20:09:17.660Z,94923.59
2019-04-03T20:13:18.738Z,94933.27
2019-04-03T20:17:20.713Z,94945.50
2019-04-03T20:21:22.639Z,94964.86
2019-04-03T20:25:24.572Z,94977.48
2019-04-03T20:29:28.142Z,94981.00
2019-04-03T20:33:30.090Z,94987.80
2019-04-03T20:37:31.983Z,94982.92
2019-04-03T20:41:34.809Z,94992.75
2019-04-03T20:45:38.132Z,95000.52
2019-04-03T20:49:40.022Z,95011.97
2019-04-03T20:53:41.912Z,95018.13
2019-04-03T20:57:54.830Z,95029.50
2019-04-03T21:01:47.452Z,95027.64
2019-04-03T21:05:49.485Z,95044.28
2019-04-03T21:09:51.427Z,95052.63
2019-04-03T21:13:54.543Z,95071.38
2019-04-03T21:17:56.446Z,95071.02
2019-04-03T21:21:59.769Z,95069.89
2019-04-03T21:26:02.204Z,95075.11
2019-04-03T21:30:07.604Z,95074.55
2019-04-03T21:34:09.491Z,95092.20
2019-04-03T21:38:11.519Z,95088.45
2019-04-03T21:42:14.403Z,95092.88
2019-04-03T21:46:17.376Z,95096.28
2019-04-03T21:50:20.018Z,95095.70
2019-04-03T21:54:21.875Z,95102.89
2019-04-03T21:58:23.771Z,95113.23
2019-04-03T22:02:25.673Z,95111.20
2019-04-03T22:06:27.861Z,95112.25
2019-04-03T22:10:32.794Z,95109.88
2019-04-03T22:14:33.405Z,95107.18
2019-04-03T22:18:35.291Z,95108.17
2019-04-03T22:22:38.158Z,95118.89
2019-04-03T22:26:41.347Z,95115.63
2019-04-03T22:30:43.333Z,95113.08
2019-04-03T22:34:46.860Z,95106.38
2019-04-03T22:38:48.742Z,95117.66
2019-04-03T22:42:50.633Z,95122.17
2019-04-03T22:46:54.116Z,95127.07
2019-04-03T22:50:57.085Z,95122.09
2019-04-03T22:54:58.950Z,95120.27
2019-04-03T22:59:01.090Z,95116.27
2019-04-03T23:03:03.489Z,95110.48
2019-04-03T23:07:05.414Z,95115.20
2019-04-03T23:11:07.301Z,95121.16
2019-04-03T23:15:10.962Z,95122.53
2019-04-03T23:19:12.846Z,95113.02
2019-04-03T23:23:14.735Z,95107.23
2019-04-03T23:27:16.636Z,95112.19
2019-04-03T23:31:18.524Z,95103.44
2019-04-03T23:35:21.184Z,95104.81
2019-04-03T23:39:24.226Z,95113.44
2019-04-03T23:43:26.122Z,95115.97
2019-04-03T23:47:28.010Z,95116.06
2019-04-03T23:51:29.983Z,95108.63
2019-04-03T23:55:32.311Z,95100.14
2019-04-03T23:59:34.213Z,95099.53
